createdAt,value
2023-02-23T00:01:22.870Z,10.10
2023-02-23T00:03:50.584Z,10.43
2023-02-23T00:06:20.619Z,10.77
2023-02-23T00:08:48.026Z,11.00
2023-02-23T00:11:16.570Z,10.40
2023-02-23T00:13:46.292Z,11.57
2023-02-23T00:16:17.735Z,11.07
2023-02-23T00:18:48.490Z,11.03
2023-02-23T00:21:17.067Z,10.87
2023-02-23T00:23:48.407Z,11.33
2023-02-23T00:26:15.719Z,10.93
2023-02-23T00:28:43.831Z,9.70
2023-02-23T00:31:11.915Z,10.73
2023-02-23T00:33:39.978Z,9.27
2023-02-23T00:36:12.059Z,10.43
2023-02-23T00:38:40.049Z,9.60
2023-02-23T00:41:12.450Z,9.97
2023-02-23T00:43:47.926Z,9.93
2023-02-23T00:46:19.128Z,10.10
2023-02-23T00:48:46.654Z,10.57
2023-02-23T00:51:14.126Z,10.13
2023-02-23T00:53:42.615Z,11.07
2023-02-23T00:56:10.309Z,10.20
2023-02-23T00:58:37.468Z,10.10
2023-02-23T01:01:08.793Z,10.07
2023-02-23T01:03:36.119Z,10.37
2023-02-23T01:06:07.202Z,10.60
2023-02-23T01:08:34.971Z,11.00
2023-02-23T01:11:06.935Z,11.03
2023-02-23T01:13:34.086Z,10.90
2023-02-23T01:16:02.178Z,11.23
2023-02-23T01:18:29.464Z,10.83
2023-02-23T01:20:56.665Z,11.37
2023-02-23T01:23:23.977Z,10.17
2023-02-23T01:25:51.139Z,11.07
2023-02-23T01:28:18.373Z,10.33
2023-02-23T01:30:45.715Z,10.57
2023-02-23T01:33:13.988Z,11.27
2023-02-23T01:35:41.148Z,10.90
2023-02-23T01:38:08.341Z,10.33
2023-02-23T01:40:37.426Z,10.83
2023-02-23T01:43:12.725Z,10.43
2023-02-23T01:45:40.731Z,10.97
2023-02-23T01:48:22.312Z,11.50
2023-02-23T01:50:49.553Z,11.93
2023-02-23T01:53:17.700Z,10.93
2023-02-23T01:55:45.220Z,11.03
2023-02-23T01:58:15.641Z,10.47
2023-02-23T02:00:47.487Z,11.07
2023-02-23T02:03:18.281Z,11.03
2023-02-23T02:05:45.694Z,11.67
2023-02-23T02:08:13.369Z,11.70
2023-02-23T02:10:40.573Z,11.37
2023-02-23T02:13:09.263Z,11.27
2023-02-23T02:15:39.402Z,11.23
2023-02-23T02:18:23.586Z,11.40
2023-02-23T02:20:56.685Z,12.67
2023-02-23T02:23:36.978Z,11.50
2023-02-23T02:26:09.849Z,11.27
2023-02-23T02:28:40.083Z,11.67
2023-02-23T02:31:16.345Z,12.23
2023-02-23T02:33:58.373Z,11.23
2023-02-23T02:36:28.293Z,11.40
2023-02-23T02:39:23.910Z,11.70
2023-02-23T02:42:01.002Z,11.27
2023-02-23T02:44:28.212Z,11.80
2023-02-23T02:46:59.117Z,12.43
2023-02-23T02:49:32.209Z,10.60
2023-02-23T02:52:12.812Z,11.80
2023-02-23T02:54:41.296Z,12.60
2023-02-23T02:57:09.837Z,11.57
2023-02-23T03:00:02.524Z,12.40
2023-02-23T03:02:48.751Z,11.17
2023-02-23T03:05:35.448Z,11.53
2023-02-23T03:08:21.504Z,11.80
2023-02-23T03:11:07.514Z,11.53
2023-02-23T03:14:07.484Z,12.10
2023-02-23T03:16:53.330Z,11.97
2023-02-23T03:19:41.792Z,11.63
2023-02-23T03:22:47.429Z,11.97
2023-02-23T03:25:44.275Z,12.60
2023-02-23T03:28:41.453Z,13.10
2023-02-23T03:31:36.543Z,11.87
2023-02-23T03:34:30.023Z,11.37
2023-02-23T03:37:31.422Z,12.07
2023-02-23T03:40:40.393Z,12.47
2023-02-23T03:43:28.453Z,11.93
2023-02-23T03:46:16.040Z,12.23
2023-02-23T03:49:03.199Z,12.40
2023-02-23T03:51:51.917Z,12.83
2023-02-23T03:54:39.681Z,12.17
2023-02-23T03:57:27.424Z,12.70
2023-02-23T04:00:16.165Z,13.63
2023-02-23T04:03:03.459Z,12.67
2023-02-23T04:05:50.594Z,12.70
2023-02-23T04:08:38.305Z,12.33
2023-02-23T04:11:33.080Z,12.20
2023-02-23T04:14:01.752Z,13.37
2023-02-23T04:16:30.601Z,12.67
2023-02-23T04:18:58.319Z,12.10
2023-02-23T04:21:25.748Z,13.23
2023-02-23T04:23:52.968Z,12.60
2023-02-23T04:26:20.189Z,11.50
2023-02-23T04:28:47.651Z,13.07
2023-02-23T04:31:14.952Z,13.23
2023-02-23T04:33:42.181Z,13.40
2023-02-23T04:36:09.452Z,12.63
2023-02-23T04:38:36.738Z,11.97
2023-02-23T04:41:03.946Z,12.23
2023-02-23T04:43:31.094Z,13.77
2023-02-23T04:45:58.288Z,12.37
2023-02-23T04:48:26.865Z,11.83
2023-02-23T04:50:54.602Z,12.83
2023-02-23T04:53:21.816Z,12.30
2023-02-23T04:55:49.065Z,12.63
2023-02-23T04:58:16.361Z,13.30
2023-02-23T05:00:43.707Z,13.33
2023-02-23T05:03:12.236Z,13.17
2023-02-23T05:05:39.756Z,13.83
2023-02-23T05:08:07.132Z,12.43
2023-02-23T05:10:35.251Z,12.93
2023-02-23T05:13:02.464Z,13.07
2023-02-23T05:15:29.790Z,12.87
2023-02-23T05:17:56.976Z,13.70
2023-02-23T05:20:24.557Z,13.00
2023-02-23T05:22:51.822Z,12.37
2023-02-23T05:25:19.068Z,12.70
2023-02-23T05:27:46.536Z,12.50
2023-02-23T05:30:13.890Z,12.33
2023-02-23T05:32:41.106Z,13.73
2023-02-23T05:35:09.048Z,14.27
2023-02-23T05:37:36.279Z,12.90
2023-02-23T05:40:03.776Z,13.17
2023-02-23T05:42:31.181Z,13.47
2023-02-23T05:44:58.497Z,12.30
2023-02-23T05:47:25.763Z,13.10
2023-02-23T05:49:52.969Z,14.63
2023-02-23T05:52:20.382Z,14.13
2023-02-23T05:54:47.928Z,13.67
2023-02-23T05:57:16.014Z,12.47
2023-02-23T05:59:43.290Z,14.03
2023-02-23T06:02:10.471Z,13.97
2023-02-23T06:04:37.678Z,13.97
2023-02-23T06:07:04.870Z,14.17
2023-02-23T06:09:32.258Z,14.30
2023-02-23T06:12:00.820Z,15.37
2023-02-23T06:14:28.118Z,14.97
2023-02-23T06:16:55.328Z,14.47
2023-02-23T06:19:22.517Z,14.80
2023-02-23T06:21:49.692Z,15.13
2023-02-23T06:24:17.795Z,14.27
2023-02-23T06:26:45.098Z,14.83
2023-02-23T06:29:12.603Z,14.33
2023-02-23T06:31:39.963Z,14.83
2023-02-23T06:34:07.248Z,15.37
2023-02-23T06:36:34.467Z,15.43
2023-02-23T06:39:02.478Z,15.87
2023-02-23T06:41:29.791Z,15.10
2023-02-23T06:43:56.994Z,14.80
2023-02-23T06:46:24.699Z,14.87
2023-02-23T06:48:55.704Z,16.67
2023-02-23T06:51:23.280Z,14.57
2023-02-23T06:53:52.486Z,16.10
2023-02-23T06:56:20.078Z,15.73
2023-02-23T06:58:48.052Z,15.93
2023-02-23T07:01:15.824Z,15.87
2023-02-23T07:03:43.254Z,16.70
2023-02-23T07:06:10.563Z,15.97
2023-02-23T07:08:37.840Z,16.13
2023-02-23T07:11:09.455Z,16.77
2023-02-23T07:13:37.203Z,15.87
2023-02-23T07:16:07.496Z,15.67
2023-02-23T07:18:34.727Z,16.27
2023-02-23T07:21:01.937Z,17.27
2023-02-23T07:23:29.208Z,16.27
2023-02-23T07:25:56.711Z,16.50
2023-02-23T07:28:24.163Z,16.83
2023-02-23T07:30:51.373Z,16.30
2023-02-23T07:33:18.578Z,15.47
2023-02-23T07:35:45.721Z,15.97
2023-02-23T07:38:13.453Z,15.83
2023-02-23T07:40:40.746Z,15.93
2023-02-23T07:43:08.578Z,16.17
2023-02-23T07:45:35.832Z,15.67
2023-02-23T07:48:03.158Z,16.13
2023-02-23T07:50:30.392Z,17.07
2023-02-23T07:52:57.589Z,16.03
2023-02-23T07:55:24.819Z,17.30
2023-02-23T07:57:52.173Z,15.73
2023-02-23T08:00:19.618Z,16.30
2023-02-23T08:02:46.806Z,15.90
2023-02-23T08:05:14.008Z,16.30
2023-02-23T08:07:41.206Z,16.80
2023-02-23T08:10:08.586Z,16.53
2023-02-23T08:12:35.886Z,16.07
2023-02-23T08:15:03.240Z,15.43
2023-02-23T08:17:30.420Z,16.57
2023-02-23T08:19:57.704Z,16.63
2023-02-23T08:22:24.863Z,16.97
2023-02-23T08:24:52.099Z,16.43
2023-02-23T08:27:20.071Z,16.03
2023-02-23T08:29:47.340Z,16.30
2023-02-23T08:32:15.146Z,15.40
2023-02-23T08:34:45.016Z,16.73
2023-02-23T08:37:12.238Z,16.27
2023-02-23T08:39:39.894Z,17.20
2023-02-23T08:42:07.175Z,17.77
2023-02-23T08:44:34.418Z,17.43
2023-02-23T08:47:04.704Z,17.60
2023-02-23T08:49:33.399Z,17.03
2023-02-23T08:52:00.596Z,16.37
2023-02-23T08:54:28.304Z,17.47
2023-02-23T08:56:58.529Z,17.77
2023-02-23T08:59:25.963Z,17.47
2023-02-23T09:01:53.225Z,16.90
2023-02-23T09:04:20.498Z,17.33
2023-02-23T09:06:47.742Z,16.97
2023-02-23T09:09:15.066Z,17.13
2023-02-23T09:11:42.566Z,16.67
2023-02-23T09:14:09.798Z,17.43
2023-02-23T09:16:37.636Z,18.03
2023-02-23T09:19:04.913Z,18.20
2023-02-23T09:21:34.365Z,17.90
2023-02-23T09:24:02.519Z,18.67
2023-02-23T09:26:29.837Z,18.07
2023-02-23T09:28:58.780Z,17.10
2023-02-23T09:31:25.987Z,17.47
2023-02-23T09:33:53.504Z,16.57
2023-02-23T09:36:22.274Z,17.17
2023-02-23T09:38:52.374Z,16.90
2023-02-23T09:41:38.128Z,17.50
2023-02-23T09:44:41.212Z,18.00
2023-02-23T09:47:19.533Z,17.40
2023-02-23T09:49:48.017Z,16.77
2023-02-23T09:52:24.827Z,16.93
2023-02-23T09:54:52.279Z,16.30
2023-02-23T09:57:22.097Z,17.20
2023-02-23T09:59:49.478Z,17.00
2023-02-23T10:02:26.087Z,16.83
2023-02-23T10:05:02.950Z,18.63
2023-02-23T10:07:33.180Z,18.57
2023-02-23T10:10:03.275Z,18.10
2023-02-23T10:12:43.414Z,18.03
2023-02-23T10:15:11.299Z,17.60
2023-02-23T10:17:53.540Z,17.03
2023-02-23T10:20:27.047Z,17.20
2023-02-23T10:22:56.178Z,17.67
2023-02-23T10:25:27.739Z,16.73
2023-02-23T10:27:55.852Z,16.40
2023-02-23T10:30:30.863Z,16.50
2023-02-23T10:33:04.192Z,16.50
2023-02-23T10:35:32.170Z,15.57
2023-02-23T10:38:00.890Z,16.57
2023-02-23T10:40:29.558Z,16.33
2023-02-23T10:42:57.301Z,17.53
2023-02-23T10:45:25.857Z,17.57
2023-02-23T10:47:58.486Z,16.87
2023-02-23T10:50:27.517Z,16.87
2023-02-23T10:52:57.403Z,15.80
2023-02-23T10:55:28.862Z,16.07
2023-02-23T10:58:16.874Z,16.23
2023-02-23T11:01:00.652Z,15.20
2023-02-23T11:03:33.752Z,15.80
2023-02-23T11:06:01.015Z,15.73
2023-02-23T11:08:32.707Z,16.23
2023-02-23T11:11:04.996Z,18.07
2023-02-23T11:13:35.369Z,16.60
2023-02-23T11:16:04.935Z,18.30
2023-02-23T11:18:32.462Z,17.33
2023-02-23T11:20:59.866Z,16.03
2023-02-23T11:23:29.428Z,17.00
2023-02-23T11:26:00.279Z,17.20
2023-02-23T11:28:42.841Z,16.27
2023-02-23T11:31:16.148Z,17.20
2023-02-23T11:33:43.517Z,18.03
2023-02-23T11:36:17.272Z,16.40
2023-02-23T11:38:46.451Z,16.10
2023-02-23T11:41:23.969Z,15.27
2023-02-23T11:43:52.811Z,16.30
2023-02-23T11:46:22.578Z,15.87
2023-02-23T11:48:53.012Z,16.23
2023-02-23T11:51:24.702Z,14.83
2023-02-23T11:53:52.297Z,16.30
2023-02-23T11:56:23.983Z,15.47
2023-02-23T11:58:53.887Z,15.13
2023-02-23T12:01:44.536Z,15.40
2023-02-23T12:04:24.060Z,16.57
2023-02-23T12:06:51.861Z,16.37
2023-02-23T12:09:27.874Z,16.50
2023-02-23T12:12:06.842Z,16.67
2023-02-23T12:14:36.823Z,15.50
2023-02-23T12:17:14.287Z,15.80
2023-02-23T12:19:54.768Z,16.83
2023-02-23T12:22:30.137Z,16.60
2023-02-23T12:25:00.518Z,17.47
2023-02-23T12:27:31.527Z,15.67
2023-02-23T12:30:15.759Z,15.60
2023-02-23T12:32:42.992Z,15.93
2023-02-23T12:35:12.931Z,16.23
2023-02-23T12:37:42.919Z,17.20
2023-02-23T12:40:23.706Z,17.40
2023-02-23T12:43:03.136Z,15.77
2023-02-23T12:45:36.105Z,16.13
2023-02-23T12:48:22.421Z,15.80
2023-02-23T12:50:53.992Z,16.63
2023-02-23T12:53:28.144Z,17.27
2023-02-23T12:56:07.758Z,16.73
2023-02-23T12:58:53.401Z,17.73
2023-02-23T13:01:37.676Z,16.43
2023-02-23T13:04:13.904Z,17.10
2023-02-23T13:06:56.289Z,16.60
2023-02-23T13:09:30.359Z,15.40
2023-02-23T13:12:16.677Z,16.37
2023-02-23T13:14:43.881Z,15.57
2023-02-23T13:17:24.242Z,16.10
2023-02-23T13:19:53.780Z,15.03
2023-02-23T13:22:21.217Z,16.03
2023-02-23T13:24:50.421Z,16.00
2023-02-23T13:27:24.806Z,16.33
2023-02-23T13:29:54.982Z,15.47
2023-02-23T13:32:23.968Z,16.10
2023-02-23T13:35:00.812Z,15.23
2023-02-23T13:37:32.263Z,14.73
2023-02-23T13:40:02.451Z,16.37
2023-02-23T13:42:48.398Z,16.93
2023-02-23T13:45:34.932Z,17.07
2023-02-23T13:48:18.688Z,17.20
2023-02-23T13:50:49.199Z,17.07
2023-02-23T13:53:34.775Z,18.53
2023-02-23T13:56:04.700Z,17.63
2023-02-23T13:58:32.825Z,17.93
2023-02-23T14:01:11.423Z,17.93
2023-02-23T14:03:57.937Z,17.87
2023-02-23T14:06:27.504Z,17.70
2023-02-23T14:09:01.008Z,18.43
2023-02-23T14:11:36.068Z,18.43
2023-02-23T14:14:03.837Z,18.40
2023-02-23T14:16:31.480Z,19.30
2023-02-23T14:19:05.647Z,18.03
2023-02-23T14:21:57.222Z,17.93
2023-02-23T14:24:25.447Z,21.13
2023-02-23T14:27:06.553Z,19.90
2023-02-23T14:29:43.878Z,21.80
2023-02-23T14:32:13.984Z,19.93
2023-02-23T14:34:46.295Z,20.77
2023-02-23T14:37:17.878Z,20.30
2023-02-23T14:39:45.106Z,19.33
2023-02-23T14:42:20.779Z,19.57
2023-02-23T14:44:51.495Z,20.30
2023-02-23T14:47:20.900Z,20.00
2023-02-23T14:49:52.440Z,19.07
2023-02-23T14:52:30.548Z,19.80
2023-02-23T14:55:13.025Z,20.97
2023-02-23T14:57:41.633Z,20.57
2023-02-23T15:00:27.494Z,26.87
2023-02-23T15:02:59.294Z,32.23
2023-02-23T15:05:28.425Z,23.83
2023-02-23T15:07:58.520Z,22.57
2023-02-23T15:10:29.458Z,20.90
2023-02-23T15:12:57.439Z,22.77
2023-02-23T15:15:25.764Z,19.73
2023-02-23T15:17:57.244Z,22.87
2023-02-23T15:20:28.895Z,21.40
2023-02-23T15:22:59.334Z,23.97
2023-02-23T15:25:33.655Z,24.60
2023-02-23T15:28:10.388Z,28.83
2023-02-23T15:30:46.581Z,25.17
2023-02-23T15:33:14.633Z,26.83
2023-02-23T15:35:49.709Z,25.63
2023-02-23T15:38:41.737Z,28.03
2023-02-23T15:41:09.996Z,29.43
2023-02-23T15:43:37.221Z,29.43
2023-02-23T15:46:06.453Z,26.30
2023-02-23T15:48:42.732Z,26.27
2023-02-23T15:51:19.274Z,24.23
2023-02-23T15:53:46.696Z,32.60
2023-02-23T15:56:16.249Z,46.83
2023-02-23T15:58:56.405Z,47.33
2023-02-23T16:01:28.424Z,46.20
2023-02-23T16:03:58.147Z,39.73
2023-02-23T16:06:27.622Z,32.17
2023-02-23T16:09:25.925Z,31.67
2023-02-23T16:12:08.235Z,35.83
2023-02-23T16:14:47.414Z,39.73
2023-02-23T16:17:32.737Z,35.60
2023-02-23T16:20:20.051Z,32.17
2023-02-23T16:22:53.847Z,32.83
2023-02-23T16:25:21.778Z,35.90
2023-02-23T16:27:55.157Z,37.47
2023-02-23T16:30:34.874Z,41.07
2023-02-23T16:33:12.448Z,39.03
2023-02-23T16:35:47.420Z,43.37
2023-02-23T16:38:14.678Z,49.50
2023-02-23T16:40:42.550Z,41.13
2023-02-23T16:43:10.730Z,36.53
2023-02-23T16:45:39.336Z,33.80
2023-02-23T16:48:11.619Z,37.47
2023-02-23T16:50:40.686Z,36.67
2023-02-23T16:53:11.323Z,35.43
2023-02-23T16:55:40.486Z,37.73
2023-02-23T16:58:27.231Z,43.67
2023-02-23T17:01:09.828Z,45.27
2023-02-23T17:03:47.399Z,53.23
2023-02-23T17:06:20.465Z,53.07
2023-02-23T17:08:57.557Z,50.37
2023-02-23T17:11:25.217Z,61.03
2023-02-23T17:13:52.481Z,61.90
2023-02-23T17:16:20.101Z,61.37
2023-02-23T17:18:49.081Z,62.33
2023-02-23T17:21:23.023Z,81.47
2023-02-23T17:23:51.279Z,76.90
2023-02-23T17:26:20.393Z,74.57
2023-02-23T17:28:47.708Z,84.23
2023-02-23T17:31:16.381Z,89.10
2023-02-23T17:33:43.792Z,95.53
2023-02-23T17:36:12.937Z,74.23
2023-02-23T17:38:44.641Z,73.50
2023-02-23T17:41:14.322Z,70.43
2023-02-23T17:43:42.045Z,66.27
2023-02-23T17:46:09.587Z,64.90
2023-02-23T17:48:36.929Z,65.47
2023-02-23T17:51:05.761Z,68.57
2023-02-23T17:53:33.510Z,78.30
2023-02-23T17:56:00.791Z,81.53
2023-02-23T17:58:28.478Z,75.77
2023-02-23T18:00:56.764Z,71.13
2023-02-23T18:03:24.121Z,68.90
2023-02-23T18:05:52.932Z,65.83
2023-02-23T18:08:20.306Z,66.10
2023-02-23T18:10:51.604Z,72.13
2023-02-23T18:13:18.987Z,81.50
2023-02-23T18:15:56.877Z,84.77
2023-02-23T18:18:24.368Z,77.33
2023-02-23T18:20:51.577Z,74.63
2023-02-23T18:23:19.503Z,81.57
2023-02-23T18:25:47.707Z,85.70
2023-02-23T18:28:15.592Z,80.63
2023-02-23T18:30:43.257Z,71.60
2023-02-23T18:33:10.626Z,65.80
2023-02-23T18:35:39.530Z,61.17
2023-02-23T18:38:10.475Z,55.80
2023-02-23T18:40:39.117Z,53.10
2023-02-23T18:43:06.548Z,51.77
2023-02-23T18:45:34.125Z,50.40
2023-02-23T18:48:01.439Z,58.63
2023-02-23T18:50:28.789Z,60.23
2023-02-23T18:52:58.083Z,59.77
2023-02-23T18:55:25.424Z,53.07
2023-02-23T18:57:52.843Z,49.63
2023-02-23T19:00:20.790Z,46.63
2023-02-23T19:02:48.336Z,46.00
2023-02-23T19:05:16.928Z,45.33
2023-02-23T19:07:44.664Z,42.63
2023-02-23T19:10:13.022Z,41.80
2023-02-23T19:12:40.691Z,39.53
2023-02-23T19:15:08.765Z,37.20
2023-02-23T19:17:36.971Z,36.60
2023-02-23T19:20:08.075Z,38.87
2023-02-23T19:22:35.669Z,37.03
2023-02-23T19:25:03.835Z,42.27
2023-02-23T19:27:31.045Z,45.90
2023-02-23T19:29:58.399Z,41.57
2023-02-23T19:32:25.900Z,45.43
2023-02-23T19:34:53.212Z,44.10
2023-02-23T19:37:20.441Z,40.30
2023-02-23T19:39:47.722Z,36.97
2023-02-23T19:42:18.370Z,38.27
2023-02-23T19:44:45.677Z,38.93
2023-02-23T19:47:12.848Z,38.83
2023-02-23T19:49:40.000Z,42.97
2023-02-23T19:52:07.197Z,43.03
2023-02-23T19:54:37.866Z,43.03
2023-02-23T19:57:05.221Z,42.73
2023-02-23T19:59:32.497Z,42.53
2023-02-23T20:01:59.720Z,45.03
2023-02-23T20:04:28.326Z,44.87
2023-02-23T20:06:55.583Z,43.13
2023-02-23T20:09:22.810Z,42.07
2023-02-23T20:11:50.014Z,40.27
2023-02-23T20:14:17.372Z,41.77
2023-02-23T20:16:44.742Z,40.60
2023-02-23T20:19:12.066Z,38.83
2023-02-23T20:21:39.856Z,40.53
2023-02-23T20:24:07.217Z,39.10
2023-02-23T20:26:37.247Z,39.17
2023-02-23T20:29:10.709Z,41.10
2023-02-23T20:31:39.155Z,39.30
2023-02-23T20:34:08.798Z,39.30
2023-02-23T20:36:36.190Z,39.30
2023-02-23T20:39:03.651Z,40.53
2023-02-23T20:41:31.552Z,37.80
2023-02-23T20:44:01.228Z,38.97
2023-02-23T20:46:30.548Z,40.07
2023-02-23T20:48:59.354Z,39.83
2023-02-23T20:51:36.140Z,39.17
2023-02-23T20:54:03.413Z,40.60
2023-02-23T20:56:32.789Z,40.60
2023-02-23T20:59:00.000Z,40.80
2023-02-23T21:01:27.697Z,40.90
2023-02-23T21:03:55.759Z,41.17
2023-02-23T21:06:24.636Z,41.03
2023-02-23T21:08:55.695Z,41.07
2023-02-23T21:11:27.347Z,40.13
2023-02-23T21:13:54.770Z,41.00
2023-02-23T21:16:23.698Z,41.33
2023-02-23T21:19:04.437Z,41.17
2023-02-23T21:21:57.829Z,41.13
2023-02-23T21:24:25.786Z,43.90
2023-02-23T21:26:53.168Z,45.00
2023-02-23T21:29:23.966Z,43.83
2023-02-23T21:31:51.779Z,40.93
2023-02-23T21:34:19.291Z,39.97
2023-02-23T21:36:46.671Z,41.13
2023-02-23T21:39:13.937Z,41.97
2023-02-23T21:41:41.340Z,39.60
2023-02-23T21:44:09.083Z,38.17
2023-02-23T21:46:36.684Z,39.20
2023-02-23T21:49:07.277Z,40.40
2023-02-23T21:51:36.636Z,38.60
2023-02-23T21:54:03.934Z,38.60
2023-02-23T21:56:32.757Z,41.60
2023-02-23T21:59:00.042Z,42.20
2023-02-23T22:01:28.822Z,39.70
2023-02-23T22:03:56.528Z,38.50
2023-02-23T22:06:28.650Z,39.50
2023-02-23T22:08:55.997Z,39.50
2023-02-23T22:11:26.890Z,37.20
2023-02-23T22:13:59.066Z,36.30
2023-02-23T22:16:28.615Z,35.17
2023-02-23T22:18:55.991Z,34.03
2023-02-23T22:21:23.600Z,33.60
2023-02-23T22:23:53.364Z,35.70
2023-02-23T22:26:21.041Z,34.83
2023-02-23T22:28:48.317Z,31.57
2023-02-23T22:31:15.751Z,31.50
2023-02-23T22:33:44.083Z,31.97
2023-02-23T22:36:18.039Z,31.00
2023-02-23T22:38:46.665Z,30.83
2023-02-23T22:41:13.987Z,31.47
2023-02-23T22:43:42.416Z,30.40
2023-02-23T22:46:11.142Z,30.93
2023-02-23T22:48:38.901Z,31.70
2023-02-23T22:51:07.810Z,31.93
2023-02-23T22:53:34.983Z,30.50
2023-02-23T22:56:02.277Z,31.70
2023-02-23T22:58:29.512Z,34.53
2023-02-23T23:01:06.462Z,32.23
2023-02-23T23:03:40.000Z,31.97
2023-02-23T23:06:09.052Z,30.73
2023-02-23T23:08:38.850Z,29.00
2023-02-23T23:11:13.840Z,30.37
2023-02-23T23:13:44.648Z,28.70
2023-02-23T23:16:29.294Z,29.33
2023-02-23T23:19:03.322Z,28.67
2023-02-23T23:21:32.300Z,28.77
2023-02-23T23:24:06.606Z,29.33
2023-02-23T23:26:35.030Z,27.70
2023-02-23T23:29:04.956Z,28.57
2023-02-23T23:31:34.754Z,28.00
2023-02-23T23:34:06.086Z,27.93
2023-02-23T23:36:35.005Z,25.23
2023-02-23T23:39:02.911Z,25.80
2023-02-23T23:41:35.422Z,22.73
2023-02-23T23:44:05.379Z,23.50
2023-02-23T23:46:37.745Z,25.17
2023-02-23T23:49:06.354Z,23.27
2023-02-23T23:51:39.145Z,22.70
2023-02-23T23:54:09.738Z,22.60
2023-02-23T23:56:37.432Z,22.63
2023-02-23T23:59:12.556Z,22.00
